Pingyao, China
Current Conditions -  °F | °C
As of 11:00 AM on Sunday 21 Dec 2014 (Local Time) from ZBYN Reporting Station
Clear Clear  
Wind Chill: 12°   Ceiling: Unl
Heat Index: 23°   Visibility: 6mi
Dew Point: -8°   Wind: 11mph
Humidity: 26%   Direction: 240°WSW
Pressure: 30.45"   Gusts: NA
Location:  37.21°N, 112.17°E
Report Text: ZBYN 210300Z 24005MPS 200V260 CAVOK M05/M22 Q1031 NOSIG
Loading
Personal Weather Stations






























Interactive Weather Map New forecast layout! Learn more

10-Day Weather Forecast

Advertisements
Track Severe Weather on mobile